JEI616 LZKZ-LRBV
Flight info
| Callsign | JEI616 |
|---|---|
| Flight time | N/A |
| Altitude | 35000 |
| Route | SUFAX DCT TOMET DCT COZMU |
| Aircraft | LJ35/M-SFGJRW/S |
Departure
| Time | 2026-05-06 17:30 |
|---|---|
| Airport | Košice International Airport (LZKZ) |
Arrival
| Time | N/A |
|---|---|
| Airport | Brașov-Ghimbav International Airport (LRBV) |
| Time | Latitude | Longitude | Altitude | Speed | Heading |
|---|---|---|---|---|---|
| 2026-05-06 17:00 | 48.67092 | 21.23650 | 746 ft | 0 kts | 304° |
| 2026-05-06 17:26 | 48.67098 | 21.23640 | 750 ft | 2 kts | 340° |
| 2026-05-06 17:27 | 48.67100 | 21.23659 | 751 ft | 4 kts | 148° |
| 2026-05-06 17:27 | 48.67059 | 21.23691 | 751 ft | 9 kts | 156° |
| 2026-05-06 17:27 | 48.67000 | 21.23744 | 751 ft | 11 kts | 148° |
| 2026-05-06 17:27 | 48.66929 | 21.23810 | 751 ft | 13 kts | 148° |
| 2026-05-06 17:28 | 48.66843 | 21.23890 | 751 ft | 16 kts | 147° |
| 2026-05-06 17:28 | 48.66829 | 21.23899 | 751 ft | 2 kts | 181° |
| 2026-05-06 17:28 | 48.66832 | 21.23974 | 750 ft | 15 kts | 95° |
| 2026-05-06 17:28 | 48.66796 | 21.24154 | 751 ft | 19 kts | 112° |
| 2026-05-06 17:29 | 48.66757 | 21.24277 | 754 ft | 11 kts | 192° |
| 2026-05-06 17:29 | 48.66733 | 21.24268 | 754 ft | 0 kts | 193° |
| 2026-05-06 17:30 | 48.66721 | 21.24264 | 754 ft | 17 kts | 197° |
| 2026-05-06 17:30 | 48.66245 | 21.24096 | 750 ft | 124 kts | 193° |
| 2026-05-06 17:30 | 48.65166 | 21.23734 | 1309 ft | 178 kts | 193° |
| 2026-05-06 17:30 | 48.63886 | 21.23282 | 2460 ft | 197 kts | 194° |
| 2026-05-06 17:31 | 48.62526 | 21.22795 | 3844 ft | 203 kts | 195° |
| 2026-05-06 17:31 | 48.61132 | 21.22308 | 5262 ft | 207 kts | 195° |
| 2026-05-06 17:31 | 48.59720 | 21.21819 | 6687 ft | 209 kts | 195° |
| 2026-05-06 17:31 | 48.58292 | 21.21319 | 8072 ft | 215 kts | 196° |
| 2026-05-06 17:32 | 48.56800 | 21.20798 | 9571 ft | 224 kts | 196° |
| 2026-05-06 17:32 | 48.55255 | 21.20440 | 10996 ft | 233 kts | 182° |
| 2026-05-06 17:32 | 48.53642 | 21.20928 | 12498 ft | 242 kts | 163° |
| 2026-05-06 17:32 | 48.52079 | 21.21895 | 14056 ft | 243 kts | 161° |
| 2026-05-06 17:33 | 48.50509 | 21.22859 | 15521 ft | 242 kts | 161° |
| 2026-05-06 17:33 | 48.48937 | 21.23811 | 16842 ft | 248 kts | 161° |
| 2026-05-06 17:33 | 48.47314 | 21.24794 | 18136 ft | 254 kts | 161° |
| 2026-05-06 17:33 | 48.45656 | 21.25802 | 19241 ft | 260 kts | 161° |
| 2026-05-06 17:34 | 48.43957 | 21.26834 | 20338 ft | 266 kts | 161° |
| 2026-05-06 17:34 | 48.42245 | 21.27874 | 21552 ft | 266 kts | 161° |
| 2026-05-06 17:34 | 48.40529 | 21.28914 | 22749 ft | 266 kts | 161° |
| 2026-05-06 17:34 | 48.38811 | 21.29955 | 23830 ft | 267 kts | 161° |
| 2026-05-06 17:35 | 48.37085 | 21.30999 | 24753 ft | 267 kts | 161° |
| 2026-05-06 17:35 | 48.35385 | 21.32026 | 25645 ft | 267 kts | 161° |
| 2026-05-06 17:35 | 48.33661 | 21.33069 | 26543 ft | 267 kts | 161° |
| 2026-05-06 17:36 | 48.30228 | 21.35141 | 28265 ft | 267 kts | 162° |
| 2026-05-06 17:36 | 48.28530 | 21.36172 | 29327 ft | 251 kts | 161° |
| 2026-05-06 17:36 | 48.26939 | 21.37148 | 30222 ft | 243 kts | 162° |
| 2026-05-06 17:36 | 48.25386 | 21.38068 | 30912 ft | 238 kts | 163° |
| 2026-05-06 17:37 | 48.23847 | 21.39013 | 31400 ft | 241 kts | 157° |
| 2026-05-06 17:37 | 48.22495 | 21.40553 | 31855 ft | 249 kts | 136° |
| 2026-05-06 17:37 | 48.21503 | 21.42713 | 32292 ft | 254 kts | 121° |
| 2026-05-06 17:37 | 48.20637 | 21.44999 | 32722 ft | 257 kts | 123° |
| 2026-05-06 17:38 | 48.19735 | 21.47321 | 33165 ft | 259 kts | 122° |
| 2026-05-06 17:38 | 48.18831 | 21.49667 | 33599 ft | 261 kts | 122° |
| 2026-05-06 17:38 | 48.17922 | 21.52038 | 33999 ft | 264 kts | 122° |
| 2026-05-06 17:38 | 48.17001 | 21.54429 | 34353 ft | 266 kts | 122° |
| 2026-05-06 17:39 | 48.16072 | 21.56836 | 34712 ft | 268 kts | 122° |
| 2026-05-06 17:39 | 48.15126 | 21.59283 | 34915 ft | 279 kts | 122° |
| 2026-05-06 17:39 | 48.14120 | 21.61879 | 34944 ft | 297 kts | 122° |
| 2026-05-06 17:39 | 48.13062 | 21.64615 | 35089 ft | 310 kts | 122° |
| 2026-05-06 17:40 | 48.11979 | 21.67417 | 35311 ft | 320 kts | 122° |
| 2026-05-06 17:40 | 48.10847 | 21.70343 | 35589 ft | 329 kts | 122° |
| 2026-05-06 17:40 | 48.09685 | 21.73337 | 35903 ft | 336 kts | 122° |
| 2026-05-06 17:40 | 48.08500 | 21.76387 | 36240 ft | 342 kts | 122° |
| 2026-05-06 17:41 | 48.07294 | 21.79488 | 36606 ft | 347 kts | 122° |
| 2026-05-06 17:41 | 48.06071 | 21.82629 | 36930 ft | 354 kts | 122° |
| 2026-05-06 17:41 | 48.04801 | 21.85883 | 36928 ft | 370 kts | 122° |
| 2026-05-06 17:41 | 48.03474 | 21.89280 | 36934 ft | 386 kts | 122° |
| 2026-05-06 17:42 | 48.02096 | 21.92808 | 36934 ft | 401 kts | 122° |
| 2026-05-06 17:42 | 48.00663 | 21.96473 | 36934 ft | 415 kts | 122° |
| 2026-05-06 17:42 | 47.99206 | 22.00190 | 36933 ft | 428 kts | 122° |
| 2026-05-06 17:42 | 47.97679 | 22.04081 | 36929 ft | 439 kts | 122° |
| 2026-05-06 17:43 | 47.96118 | 22.08052 | 36929 ft | 450 kts | 121° |
| 2026-05-06 17:43 | 47.94511 | 22.12137 | 36928 ft | 460 kts | 121° |
| 2026-05-06 17:43 | 47.91213 | 22.20496 | 36923 ft | 475 kts | 121° |
| 2026-05-06 17:44 | 47.87829 | 22.29048 | 36925 ft | 482 kts | 121° |
| 2026-05-06 17:44 | 47.84421 | 22.37631 | 36926 ft | 484 kts | 121° |
| 2026-05-06 17:45 | 47.81012 | 22.46189 | 36926 ft | 484 kts | 121° |
| 2026-05-06 17:45 | 47.77571 | 22.54801 | 36927 ft | 485 kts | 121° |
| 2026-05-06 17:46 | 47.74098 | 22.63464 | 36928 ft | 485 kts | 121° |
| 2026-05-06 17:46 | 47.70665 | 22.72001 | 36925 ft | 485 kts | 121° |
| 2026-05-06 17:47 | 47.67207 | 22.80572 | 36925 ft | 485 kts | 121° |
| 2026-05-06 17:47 | 47.63734 | 22.89154 | 36921 ft | 485 kts | 121° |
| 2026-05-06 17:48 | 47.60279 | 22.97663 | 36923 ft | 485 kts | 121° |
| 2026-05-06 17:48 | 47.56795 | 23.06217 | 36927 ft | 485 kts | 121° |
| 2026-05-06 17:49 | 47.53308 | 23.14752 | 36931 ft | 485 kts | 121° |
| 2026-05-06 17:49 | 47.49813 | 23.23278 | 36943 ft | 485 kts | 121° |
| 2026-05-06 17:50 | 47.46320 | 23.31776 | 36943 ft | 485 kts | 121° |
| 2026-05-06 17:50 | 47.42831 | 23.40235 | 36941 ft | 485 kts | 121° |
| 2026-05-06 17:51 | 47.39319 | 23.48724 | 36943 ft | 484 kts | 121° |
| 2026-05-06 17:51 | 47.35798 | 23.57210 | 36938 ft | 484 kts | 121° |
| 2026-05-06 17:52 | 47.32298 | 23.65617 | 36943 ft | 484 kts | 121° |
| 2026-05-06 17:52 | 47.28769 | 23.74070 | 36945 ft | 484 kts | 121° |
| 2026-05-06 17:53 | 47.25235 | 23.82505 | 36944 ft | 484 kts | 121° |
| 2026-05-06 17:53 | 47.21703 | 23.90913 | 36939 ft | 483 kts | 121° |
| 2026-05-06 17:54 | 47.18168 | 23.99299 | 36936 ft | 483 kts | 121° |
| 2026-05-06 17:54 | 47.14613 | 24.07708 | 36936 ft | 483 kts | 121° |
| 2026-05-06 17:55 | 47.11064 | 24.16077 | 36938 ft | 483 kts | 122° |
| 2026-05-06 17:55 | 47.07529 | 24.24388 | 36843 ft | 484 kts | 122° |
| 2026-05-06 17:56 | 47.05742 | 24.28582 | 36730 ft | 485 kts | 122° |
| 2026-05-06 17:56 | 47.03939 | 24.32801 | 36176 ft | 492 kts | 122° |
| 2026-05-06 17:56 | 47.02106 | 24.37062 | 35527 ft | 496 kts | 122° |
| 2026-05-06 17:56 | 47.00270 | 24.41370 | 34738 ft | 501 kts | 122° |
| 2026-05-06 17:57 | 46.98418 | 24.45712 | 33972 ft | 504 kts | 122° |
| 2026-05-06 17:57 | 46.96545 | 24.50061 | 33112 ft | 505 kts | 122° |
| 2026-05-06 17:57 | 46.94666 | 24.54411 | 32274 ft | 505 kts | 122° |
| 2026-05-06 17:57 | 46.92796 | 24.58754 | 31470 ft | 505 kts | 122° |
| 2026-05-06 17:58 | 46.90922 | 24.63107 | 30686 ft | 505 kts | 122° |
| 2026-05-06 17:58 | 46.89084 | 24.67358 | 29928 ft | 492 kts | 122° |
| 2026-05-06 17:58 | 46.87282 | 24.71513 | 29043 ft | 479 kts | 122° |
| 2026-05-06 17:58 | 46.85509 | 24.75600 | 28181 ft | 474 kts | 122° |
| 2026-05-06 17:59 | 46.83753 | 24.79647 | 27418 ft | 468 kts | 122° |
| 2026-05-06 17:59 | 46.82014 | 24.83647 | 26565 ft | 465 kts | 122° |
| 2026-05-06 17:59 | 46.80289 | 24.87607 | 25888 ft | 459 kts | 122° |
| 2026-05-06 17:59 | 46.78586 | 24.91507 | 25226 ft | 453 kts | 122° |
| 2026-05-06 18:00 | 46.76917 | 24.95330 | 24303 ft | 443 kts | 122° |
| 2026-05-06 18:00 | 46.75266 | 24.99105 | 23198 ft | 439 kts | 123° |
| 2026-05-06 18:00 | 46.73632 | 25.02836 | 21994 ft | 434 kts | 123° |
| 2026-05-06 18:00 | 46.72026 | 25.06499 | 20861 ft | 425 kts | 123° |
| 2026-05-06 18:01 | 46.70479 | 25.10020 | 19810 ft | 409 kts | 123° |
| 2026-05-06 18:01 | 46.68974 | 25.13445 | 18793 ft | 393 kts | 124° |
| 2026-05-06 18:01 | 46.67525 | 25.16740 | 17765 ft | 380 kts | 124° |
| 2026-05-06 18:01 | 46.66122 | 25.19922 | 16547 ft | 370 kts | 124° |
| 2026-05-06 18:02 | 46.64734 | 25.23060 | 15268 ft | 367 kts | 124° |
| 2026-05-06 18:02 | 46.63364 | 25.26164 | 14114 ft | 360 kts | 123° |
| 2026-05-06 18:02 | 46.62034 | 25.29177 | 12822 ft | 349 kts | 124° |
| 2026-05-06 18:02 | 46.60683 | 25.32225 | 10757 ft | 369 kts | 124° |
| 2026-05-06 18:03 | 46.59407 | 25.35233 | 8577 ft | 320 kts | 124° |
| 2026-05-06 18:03 | 46.58051 | 25.38708 | 5012 ft | 429 kts | 121° |
| 2026-05-06 18:03 | 46.56658 | 25.42087 | 6069 ft | 362 kts | 122° |
| 2026-05-06 18:03 | 46.55202 | 25.45312 | 6592 ft | 395 kts | 127° |
| 2026-05-06 18:04 | 46.53495 | 25.48474 | 7475 ft | 416 kts | 129° |
| 2026-05-06 18:04 | 46.51712 | 25.52015 | 7493 ft | 448 kts | 126° |